Flight Track Log - Related Links

Times and Time Zones

All times are in EDT time to prevent confusion due to time zone crossing. See the CTL13 flight status page for this flight to view local times or setup timezone preferences in your user account.

Time Position Orientation Groundspeed Altitude Reporting Facility
EDT Latitude Longitude Course Direction KTS MPH feet Rate Location/Type
Wed 08:16:53 PM 39.9000 -86.3500 323° Northwest 142 163 2,100  Level Indianapolis TRACON
Wed 08:18:05 PM 39.9333 -86.3833 323° Northwest 138 159 2,800 545 Climbing Indianapolis TRACON
Wed 08:19:05 PM 39.9500 -86.4167 303° West 132 152 3,300 524 Climbing Indianapolis TRACON
Wed 08:20:11 PM 40.0000 -86.4333 346° North 131 151 3,900 569 Climbing Indianapolis TRACON
Wed 08:21:22 PM 40.0247 -86.4733 309° West 132 152 4,600 632 Climbing Indianapolis Center
Wed 08:22:24 PM 40.0517 -86.4997 323° Northwest 127 146 5,300 629 Climbing Indianapolis Center
Wed 08:23:26 PM 40.0792 -86.5261 324° Northwest 123 142 5,900 390 Climbing Indianapolis Center
Wed 08:24:27 PM 40.1072 -86.5558 321° Northwest 126 145 6,100 98 Climbing Indianapolis Center
Wed 08:25:29 PM 40.1403 -86.5892 322° Northwest 137 158 6,100 -47 Level Indianapolis Center
Wed 08:26:35 PM 40.1819 -86.6331 321° Northwest 156 180 6,000 -47 Descending Chicago Center
Wed 08:27:37 PM 40.2150 -86.6664 322° Northwest 153 176 6,000 48 Level Chicago Center
Wed 08:28:40 PM 40.2469 -86.7039 318° Northwest 154 177 6,100 49 Climbing Chicago Center
Wed 08:29:40 PM 40.2844 -86.7450 320° Northwest 152 175 6,100  Level Chicago Center
Wed 08:30:35 PM 40.3125 -86.7769 319° Northwest 151 174 6,100  Level Chicago Center
Wed 08:31:35 PM 40.3467 -86.8144 320° Northwest 153 176 6,100  Level Chicago Center
Wed 08:32:48 PM 40.3806 -86.8553 317° Northwest 152 175 6,100 -49 Level Chicago Center
Wed 08:33:37 PM 40.4106 -86.8869 321° Northwest 152 175 6,000 -55 Descending Chicago Center
Wed 08:34:37 PM 40.4406 -86.9217 319° Northwest 150 173 6,000  Level Chicago Center
Wed 08:35:38 PM 40.4747 -86.9567 322° Northwest 148 170 6,000  Level Chicago Center
Wed 08:36:38 PM 40.5067 -86.9944 318° Northwest 150 173 6,000 52 Level Chicago Center
Wed 08:37:34 PM 40.5369 -87.0239 324° Northwest 149 171 6,100 52 Climbing Chicago Center
Wed 08:38:34 PM 40.5714 -87.0481 332° Northwest 149 171 6,100  Level Chicago Center
Wed 08:39:40 PM 40.6164 -87.0731 337° Northwest 153 176 6,100  Level Chicago Center
Wed 08:41:05 PM 40.6661 -87.1006 337° Northwest 151 174 6,100  Level Chicago Center
Wed 08:42:07 PM 40.7133 -87.1258 338° Northwest 153 176 6,100 -48 Level Chicago Center
Wed 08:43:09 PM 40.7519 -87.1486 336° Northwest 153 176 6,000  Descending Chicago Center
Wed 08:44:11 PM 40.7914 -87.1756 333° Northwest 158 182 6,100 48 Climbing Chicago Center
Wed 08:45:13 PM 40.8292 -87.2006 333° Northwest 155 178 6,100 -48 Level Chicago Center
Wed 08:46:15 PM 40.8686 -87.2233 336° Northwest 156 180 6,000 -97 Descending Chicago Center
Wed 08:47:17 PM 40.9175 -87.2528 336° Northwest 161 185 5,900  Descending Chicago Center
Wed 08:48:19 PM 40.9575 -87.2750 337° Northwest 158 182 6,000 97 Climbing Chicago Center
Wed 08:49:21 PM 40.9969 -87.2994 335° Northwest 158 182 6,100 -145 Climbing Chicago Center
Wed 08:50:23 PM 41.0367 -87.3239 335° Northwest 157 181 5,700 -387 Descending Chicago Center
Wed 08:51:25 PM 41.0811 -87.3511 335° Northwest 170 196 5,300 -435 Descending Chicago Center
Wed 08:52:27 PM 41.1331 -87.3853 334° Northwest 175 201 4,800 -484 Descending Chicago Center
Wed 08:53:29 PM 41.1775 -87.4078 339° North 172 198 4,300 -384 Descending Chicago Center
Wed 08:54:32 PM 41.2231 -87.4297 340° North 174 200 4,000 -144 Descending Chicago Center
Wed 08:55:34 PM 41.2647 -87.4506 339° North 170 196 4,000 48 Level Chicago Center
Wed 08:56:36 PM 41.3056 -87.4708 340° North 164 189 4,100  Climbing Chicago Center
Wed 08:57:38 PM 41.3528 -87.4964 338° Northwest 158 182 4,000 -48 Descending Chicago Center
Wed 08:58:40 PM 41.3928 -87.5169 339° North 156 180 4,000  Level Chicago Center
Wed 08:59:42 PM 41.4325 -87.5414 335° Northwest 157 181 4,000  Level Chicago Center
Wed 09:00:44 PM 41.4589 -87.5933 304° West 178 205 4,000  Level Chicago Center
Wed 09:01:46 PM 41.4867 -87.6403 308° West 170 196 4,000  Level Chicago Center
Wed 09:02:48 PM 41.5203 -87.7000 307° West 168 193 4,000  Level Chicago Center
Wed 09:03:50 PM 41.5497 -87.7497 308° West 170 196 4,000 -145 Level Chicago Center
Wed 09:04:52 PM 41.5592 -87.8169 281° West 184 212 3,700 -384 Descending Chicago Center
Wed 09:05:55 PM 41.5733 -87.8817 286° West 185 213 3,200 -480 Descending Chicago Center
Wed 09:06:57 PM 41.6119 -87.9361 313° West 183 211 2,700 -290 Descending Chicago Center
Wed 09:07:59 PM 41.6531 -87.9136 22° Northeast 171 197 2,600 -97 Descending Chicago Center
Wed 09:09:01 PM 41.6864 -87.8764 40° Northeast 162 186 2,500 -145 Descending Chicago Center
Wed 09:10:03 PM 41.7194 -87.8375 41° Northeast 160 184 2,300 -435 Descending Chicago Center
Wed 09:11:05 PM 41.7514 -87.7964 44° Northeast 160 184 1,600 -581 Descending Chicago Center
Wed 09:12:07 PM 41.7719 -87.7675 46° Northeast 129 148 1,100 -484 Descending Chicago Center

Login

Don't have an account? Register now (free) for customized features, flight alerts, and more!